Time;durP1;ratioP1;P1;durP2;ratioP2;P2;SDS_P1;SDS_P2;PMS_P1;PMS_P2;Temp;Humidity;BMP_temperature;BMP_pressure;BME280_temperature;BME280_humidity;BME280_pressure;Samples;Min_cycle;Max_cycle;Signal;HPM_P1;HPM_P2
2021/11/16 00:00:50;;;;;;;29.90;19.60;;;;;;;14.54;56.08;102119.69;4992646;28;20193;-70
2021/11/16 00:03:16;;;;;;;31.60;17.70;;;;;;;13.90;57.68;102106.59;4991525;28;20251;-69
2021/11/16 00:05:41;;;;;;;28.73;18.13;;;;;;;13.97;57.33;102101.81;4991591;28;20178;-69
2021/11/16 00:08:07;;;;;;;30.87;18.43;;;;;;;14.42;57.02;102105.94;4992115;28;20193;-69
2021/11/16 00:10:33;;;;;;;26.60;18.00;;;;;;;14.39;56.75;102101.56;4992383;28;20253;-70
2021/11/16 00:12:59;;;;;;;28.17;18.40;;;;;;;14.79;55.96;102103.19;4991043;28;20176;-69
2021/11/16 00:15:24;;;;;;;29.43;18.13;;;;;;;14.13;57.35;102092.13;4974738;28;20181;-69
2021/11/16 00:17:49;;;;;;;30.27;18.17;;;;;;;13.44;57.68;102097.97;4991246;28;20194;-69
2021/11/16 00:20:16;;;;;;;31.67;19.20;;;;;;;13.50;58.47;102094.16;4991541;28;20227;-69
2021/11/16 00:22:43;;;;;;;31.27;17.93;;;;;;;14.84;55.98;102092.19;4992361;28;20182;-69
2021/11/16 00:27:38;;;;;;;29.17;18.83;;;;;;;13.56;57.97;102079.59;4991487;28;20286;-69
2021/11/16 00:30:05;;;;;;;29.37;18.00;;;;;;;14.77;56.27;102091.66;4992752;28;20658;-70
2021/11/16 00:32:30;;;;;;;26.90;18.03;;;;;;;15.01;54.95;102084.16;4992479;28;20174;-70
2021/11/16 00:34:56;;;;;;;29.53;18.67;;;;;;;14.50;55.73;102074.25;4992339;28;20669;-70
2021/11/16 00:37:26;;;;;;;31.03;18.63;;;;;;;13.64;58.73;102085.47;4992225;28;20209;-70
2021/11/16 00:39:55;;;;;;;31.17;18.67;;;;;;;13.98;57.23;102084.78;4992341;28;20166;-69
2021/11/16 00:42:21;;;;;;;31.47;19.27;;;;;;;14.06;57.59;102079.91;4992447;28;20247;-69
2021/11/16 00:44:46;;;;;;;32.13;19.03;;;;;;;13.66;57.71;102076.41;4991272;28;20174;-69
2021/11/16 00:47:12;;;;;;;28.87;18.50;;;;;;;14.19;56.46;102069.47;4991826;28;20232;-68
2021/11/16 00:49:37;;;;;;;31.63;19.47;;;;;;;13.71;58.03;102073.50;4991907;28;20205;-69
2021/11/16 00:52:03;;;;;;;30.63;20.53;;;;;;;14.01;58.02;102080.13;4991510;28;20198;-68
2021/11/16 00:54:28;;;;;;;31.13;19.33;;;;;;;13.83;58.16;102072.09;4992188;28;20181;-69
2021/11/16 00:56:54;;;;;;;32.87;20.27;;;;;;;14.54;56.48;102074.00;5004630;28;20197;-69
2021/11/16 00:59:19;;;;;;;32.23;20.27;;;;;;;14.38;56.42;102070.28;5007506;28;20204;-70
2021/11/16 01:01:45;;;;;;;39.07;21.40;;;;;;;13.89;58.13;102072.66;5007381;28;20281;-69
2021/11/16 01:04:12;;;;;;;33.50;20.53;;;;;;;14.12;57.82;102066.19;4990226;28;20177;-69
2021/11/16 01:06:38;;;;;;;36.50;21.83;;;;;;;13.40;58.40;102064.22;4991756;28;20201;-69
2021/11/16 01:09:03;;;;;;;33.47;21.73;;;;;;;14.54;56.22;102060.56;4991720;28;20180;-70
2021/11/16 01:11:28;;;;;;;34.33;20.60;;;;;;;14.81;55.66;102062.78;4990321;28;20642;-70
2021/11/16 01:13:54;;;;;;;36.63;21.67;;;;;;;14.24;56.14;102054.00;4992041;28;20173;-70
2021/11/16 01:16:19;;;;;;;39.03;23.20;;;;;;;14.31;57.75;102067.03;4991463;28;20566;-70
2021/11/16 01:18:44;;;;;;;40.17;22.47;;;;;;;14.25;57.40;102061.09;4973812;28;20186;-70
2021/11/16 01:21:10;;;;;;;36.57;22.10;;;;;;;14.49;56.40;102050.97;4991158;28;20682;-70
2021/11/16 01:23:35;;;;;;;36.60;22.33;;;;;;;14.46;56.78;102061.88;4991050;28;20543;-70
2021/11/16 01:26:01;;;;;;;37.73;22.20;;;;;;;14.52;56.30;102048.16;4990865;28;20185;-70
2021/11/16 01:28:28;;;;;;;41.33;23.63;;;;;;;13.77;57.91;102054.47;4991548;28;20178;-70
2021/11/16 01:30:57;;;;;;;36.33;22.00;;;;;;;13.82;57.53;102044.38;4974200;28;20180;-70
2021/11/16 01:33:29;;;;;;;37.83;22.37;;;;;;;14.74;56.60;102056.88;4992594;28;20178;-70
2021/11/16 01:35:55;;;;;;;39.13;25.23;;;;;;;13.95;58.33;102045.53;4994595;28;20281;-69
2021/11/16 01:38:22;;;;;;;41.40;24.27;;;;;;;14.52;56.70;102046.34;4994719;28;20176;-68
2021/11/16 01:40:48;;;;;;;42.13;24.53;;;;;;;14.00;57.59;102040.81;4994247;28;20190;-69
2021/11/16 01:43:14;;;;;;;41.60;24.60;;;;;;;13.56;58.56;102036.66;4994467;28;20527;-69
2021/11/16 01:45:40;;;;;;;40.47;23.90;;;;;;;14.33;57.00;102042.78;4992817;28;20215;-69
2021/11/16 01:48:07;;;;;;;43.70;24.37;;;;;;;14.09;57.90;102032.28;4992716;28;20197;-69
2021/11/16 01:50:33;;;;;;;48.53;25.73;;;;;;;14.03;57.60;102031.72;4992896;28;20643;-70
2021/11/16 01:52:59;;;;;;;41.43;24.57;;;;;;;14.35;56.87;102032.84;4992807;28;20170;-68
2021/11/16 01:55:25;;;;;;;45.00;25.10;;;;;;;14.84;55.92;102036.63;4992741;28;20178;-68
2021/11/16 01:57:51;;;;;;;43.40;25.13;;;;;;;13.83;57.44;102019.28;4993903;28;20695;-69
2021/11/16 02:00:23;;;;;;;45.30;26.57;;;;;;;14.26;57.77;102030.63;4992537;28;20200;-69
2021/11/16 02:02:49;;;;;;;45.80;25.57;;;;;;;14.62;56.55;102023.44;4993773;28;20168;-69
2021/11/16 02:05:14;;;;;;;48.23;25.90;;;;;;;14.31;57.09;102018.69;4992863;28;20174;-69
2021/11/16 02:07:45;;;;;;;44.20;26.20;;;;;;;14.21;57.67;102012.06;4993581;28;20201;-69
2021/11/16 02:10:10;;;;;;;43.10;25.43;;;;;;;13.51;58.71;102002.03;4994018;28;20226;-69
2021/11/16 02:12:36;;;;;;;45.50;26.27;;;;;;;13.01;60.15;102005.16;4993794;28;20628;-68
2021/11/16 02:15:01;;;;;;;48.20;26.77;;;;;;;12.71;60.23;101999.34;4993640;28;20682;-69
2021/11/16 02:17:26;;;;;;;50.63;28.57;;;;;;;13.63;59.19;101989.84;4993516;28;20225;-69
2021/11/16 02:19:52;;;;;;;54.47;28.80;;;;;;;13.11;59.69;101981.50;4992136;28;20184;-69
2021/11/16 02:22:17;;;;;;;49.13;28.77;;;;;;;13.85;58.40;101985.19;4992488;28;20190;-69
2021/11/16 02:24:42;;;;;;;51.57;28.00;;;;;;;14.78;56.76;101993.94;4993556;28;20170;-69
2021/11/16 02:27:08;;;;;;;49.03;28.23;;;;;;;14.48;57.03;101996.38;4993755;28;20190;-69
2021/11/16 02:29:33;;;;;;;53.03;28.57;;;;;;;14.37;56.76;101985.28;4992965;28;20196;-69
2021/11/16 02:31:58;;;;;;;44.77;26.40;;;;;;;13.99;58.18;101987.19;4992808;28;20177;-70
2021/11/16 02:34:25;;;;;;;49.63;28.93;;;;;;;13.73;58.41;101983.09;4993872;28;20174;-71
2021/11/16 02:36:51;;;;;;;50.70;28.93;;;;;;;13.50;59.60;101991.38;4992200;28;20210;-70
2021/11/16 02:39:16;;;;;;;55.67;30.90;;;;;;;13.66;58.94;101974.47;4993764;28;20182;-70
2021/11/16 02:41:45;;;;;;;55.00;30.43;;;;;;;13.80;58.41;101968.44;4993103;28;20201;-68
2021/11/16 02:44:11;;;;;;;56.70;28.67;;;;;;;13.88;58.78;101974.31;4991470;28;20181;-69
2021/11/16 02:46:37;;;;;;;51.37;30.33;;;;;;;13.90;58.59;101977.78;4993309;28;20554;-69
2021/11/16 02:49:02;;;;;;;49.60;29.03;;;;;;;13.67;58.70;101967.28;4993040;28;20177;-69
2021/11/16 02:51:32;;;;;;;53.00;31.40;;;;;;;14.58;57.15;101965.44;4991663;28;20535;-69
2021/11/16 02:53:57;;;;;;;60.60;30.40;;;;;;;14.48;57.22;101958.78;4992861;28;20223;-69
2021/11/16 02:56:23;;;;;;;57.93;32.13;;;;;;;14.32;57.50;101957.81;4993032;28;20201;-69
2021/11/16 02:58:48;;;;;;;54.20;29.47;;;;;;;14.61;57.13;101951.84;4993392;28;20178;-69
2021/11/16 03:01:16;;;;;;;53.73;29.90;;;;;;;15.09;56.17;101962.75;4992796;28;20600;-69
2021/11/16 03:03:41;;;;;;;55.50;30.83;;;;;;;15.26;55.34;101962.72;4992805;28;20647;-69
2021/11/16 03:06:08;;;;;;;57.53;31.97;;;;;;;15.05;56.07;101961.19;4993232;28;20265;-69
2021/11/16 03:08:33;;;;;;;58.90;31.23;;;;;;;13.45;59.17;101946.88;4992941;28;20173;-69
2021/11/16 03:11:02;;;;;;;65.27;31.93;;;;;;;13.89;57.86;101937.59;4991859;28;20174;-69
2021/11/16 03:13:29;;;;;;;57.07;30.67;;;;;;;13.57;59.25;101944.53;4991729;28;20173;-69
2021/11/16 03:15:55;;;;;;;59.83;30.87;;;;;;;14.96;56.07;101936.53;4993047;28;20181;-69
2021/11/16 03:18:21;;;;;;;63.00;32.03;;;;;;;14.22;57.39;101937.75;4993059;28;20520;-69
2021/11/16 03:20:47;;;;;;;57.93;31.40;;;;;;;14.67;56.17;101934.53;4993413;28;20559;-69
2021/11/16 03:23:16;;;;;;;58.13;32.77;;;;;;;14.91;55.55;101918.94;4992629;28;20220;-69
2021/11/16 03:25:48;;;;;;;61.27;33.47;;;;;;;14.85;56.95;101925.47;4992630;28;20174;-69
2021/11/16 03:28:15;;;;;;;51.80;29.80;;;;;;;14.16;58.34;101936.25;4992749;28;20550;-69
2021/11/16 03:30:42;;;;;;;64.83;31.67;;;;;;;15.11;55.92;101923.22;4992321;28;20263;-69
2021/11/16 03:33:08;;;;;;;55.47;31.73;;;;;;;14.54;56.38;101914.63;4991505;28;20170;-69
2021/11/16 03:35:35;;;;;;;61.77;33.30;;;;;;;13.91;57.76;101912.44;4991487;28;20671;-69
2021/11/16 03:38:01;;;;;;;54.03;31.77;;;;;;;13.80;58.49;101922.84;4992325;28;20671;-69
2021/11/16 03:40:28;;;;;;;62.83;33.03;;;;;;;14.44;57.80;101924.09;4974942;28;20240;-68
2021/11/16 03:42:53;;;;;;;64.20;34.33;;;;;;;13.62;59.13;101915.66;4991384;28;20625;-69
2021/11/16 03:45:21;;;;;;;69.73;34.13;;;;;;;14.52;58.02;101916.53;4991588;28;20261;-68
2021/11/16 03:47:47;;;;;;;63.33;33.73;;;;;;;14.54;57.17;101910.13;4991226;28;20197;-68
2021/11/16 03:50:15;;;;;;;70.93;34.50;;;;;;;14.94;56.90;101913.38;4992180;28;20185;-69
2021/11/16 03:52:42;;;;;;;63.73;33.53;;;;;;;15.13;56.06;101908.72;4992453;28;20178;-70
2021/11/16 03:55:10;;;;;;;57.40;33.00;;;;;;;14.93;56.45;101911.66;4991317;28;20174;-70
2021/11/16 03:57:36;;;;;;;60.60;34.10;;;;;;;14.44;57.84;101911.53;4991930;28;20292;-70
2021/11/16 04:00:07;;;;;;;60.87;32.67;;;;;;;15.45;55.74;101911.47;4990621;28;20174;-70
2021/11/16 04:02:33;;;;;;;64.27;33.77;;;;;;;14.98;56.18;101893.44;4992185;28;20578;-70
2021/11/16 04:04:58;;;;;;;64.60;33.43;;;;;;;13.94;57.56;101877.38;4992344;28;20173;-70
2021/11/16 04:07:24;;;;;;;61.77;33.67;;;;;;;14.05;58.05;101882.19;4991904;28;20193;-70
2021/11/16 04:09:49;;;;;;;67.77;35.23;;;;;;;13.87;59.17;101889.38;4991851;28;20182;-70
2021/11/16 04:12:14;;;;;;;67.43;35.70;;;;;;;13.63;59.55;101882.53;4991747;28;20174;-70
2021/11/16 04:14:41;;;;;;;76.17;36.00;;;;;;;13.17;60.27;101874.03;4990469;28;20218;-69
2021/11/16 04:17:06;;;;;;;71.43;36.50;;;;;;;13.70;59.40;101878.59;4991819;28;20205;-69
2021/11/16 04:19:32;;;;;;;75.07;36.93;;;;;;;14.13;58.46;101881.84;4991545;28;20200;-69
2021/11/16 04:21:57;;;;;;;70.93;36.03;;;;;;;14.22;57.80;101892.09;4992094;28;20189;-68
2021/11/16 04:24:23;;;;;;;69.03;35.57;;;;;;;13.86;58.36;101884.09;4991852;28;20717;-69
2021/11/16 04:26:48;;;;;;;77.10;33.87;;;;;;;14.17;58.31;101889.66;4990521;28;20197;-67
2021/11/16 04:29:15;;;;;;;70.77;35.83;;;;;;;15.13;56.44;101881.84;4991678;28;20230;-67
2021/11/16 04:31:40;;;;;;;71.37;34.97;;;;;;;15.31;55.17;101875.44;4991465;28;20180;-67
2021/11/16 04:34:07;;;;;;;71.00;35.03;;;;;;;15.04;56.01;101871.59;4991611;28;20194;-69
2021/11/16 04:36:33;;;;;;;69.70;34.57;;;;;;;15.26;55.57;101882.03;4990265;28;20212;-69
2021/11/16 04:38:59;;;;;;;66.33;33.87;;;;;;;15.25;55.59;101873.09;4974021;28;20182;-68
2021/11/16 04:41:24;;;;;;;61.20;33.27;;;;;;;15.63;54.60;101873.66;4990104;28;20767;-69
2021/11/16 04:43:49;;;;;;;64.27;32.57;;;;;;;14.89;56.41;101883.19;4991495;28;20181;-68
2021/11/16 04:46:19;;;;;;;79.23;35.60;;;;;;;14.65;56.69;101874.63;4991507;28;20194;-69
2021/11/16 04:51:37;;;;;;;66.27;33.03;;;;;;;14.94;56.36;101876.63;4991508;28;20166;-69
2021/11/16 04:54:18;;;;;;;66.07;33.50;;;;;;;14.93;57.24;101887.47;4991280;28;20183;-69
2021/11/16 04:59:41;;;;;;;62.70;33.43;;;;;;;15.35;55.15;101861.81;4991351;28;20207;-69
2021/11/16 05:04:51;;;;;;;70.10;34.37;;;;;;;14.67;57.04;101862.84;4990367;28;20161;-69
2021/11/16 05:07:20;;;;;;;74.80;35.30;;;;;;;15.00;57.04;101872.72;4991052;28;20689;-68
2021/11/16 05:09:50;;;;;;;79.93;36.93;;;;;;;13.82;58.67;101861.91;4991071;28;20647;-68
2021/11/16 05:12:16;;;;;;;68.37;34.27;;;;;;;15.29;56.08;101853.16;4991335;28;20150;-71
2021/11/16 05:14:41;;;;;;;73.90;36.07;;;;;;;13.86;58.07;101849.22;4991425;28;20188;-71
2021/11/16 05:17:07;;;;;;;69.77;35.60;;;;;;;15.25;56.01;101848.03;4973816;28;20193;-72
2021/11/16 05:19:32;;;;;;;66.33;35.73;;;;;;;14.76;56.36;101848.03;4991803;28;20181;-72
2021/11/16 05:21:57;;;;;;;74.07;34.77;;;;;;;15.38;55.32;101858.97;4990995;28;20194;-71
2021/11/16 05:24:24;;;;;;;67.57;33.73;;;;;;;15.29;55.59;101855.84;4991223;28;20201;-71
2021/11/16 05:26:53;;;;;;;69.60;34.87;;;;;;;14.62;56.95;101862.22;4989836;28;20655;-71
2021/11/16 05:29:18;;;;;;;77.10;35.23;;;;;;;14.78;56.56;101864.94;4989885;28;20284;-71
2021/11/16 05:31:43;;;;;;;75.47;36.57;;;;;;;14.70;56.96;101873.44;4991300;28;20170;-72
2021/11/16 05:34:09;;;;;;;71.37;35.60;;;;;;;14.64;56.57;101863.03;4990979;28;20178;-71
2021/11/16 05:36:34;;;;;;;72.13;35.40;;;;;;;14.11;57.96;101848.81;5024894;22;20250;-75
2021/11/16 05:38:59;;;;;;;71.97;35.10;;;;;;;14.09;58.97;101859.63;5081182;28;20179;-73
2021/11/16 05:41:25;;;;;;;74.67;35.03;;;;;;;14.76;56.93;101847.19;5080027;28;20277;-74
2021/11/16 05:43:51;;;;;;;86.07;37.17;;;;;;;14.02;58.38;101856.38;5064338;28;20557;-73
2021/11/16 05:46:21;;;;;;;74.83;36.47;;;;;;;14.09;58.69;101852.44;5085706;28;20261;-73
2021/11/16 05:48:47;;;;;;;81.07;37.07;;;;;;;13.86;59.08;101852.75;5067676;28;20148;-73
2021/11/16 05:51:13;;;;;;;77.37;36.27;;;;;;;13.74;59.13;101842.63;5048616;28;20217;-72
2021/11/16 05:53:40;;;;;;;84.20;37.40;;;;;;;13.20;60.89;101835.47;5065472;28;20183;-74
2021/11/16 05:56:06;;;;;;;76.17;36.77;;;;;;;13.23;60.83;101835.34;5047693;28;20175;-75
2021/11/16 05:58:31;;;;;;;82.47;37.40;;;;;;;13.77;59.00;101823.72;5064632;28;20188;-74
2021/11/16 06:00:57;;;;;;;76.50;37.03;;;;;;;15.13;56.32;101825.38;5063329;28;20672;-74
2021/11/16 06:03:22;;;;;;;74.83;34.87;;;;;;;13.83;59.26;101839.50;5065781;28;20179;-74
2021/11/16 06:05:47;;;;;;;81.53;37.93;;;;;;;14.04;58.98;101845.56;5064708;28;20184;-74
2021/11/16 06:08:24;;;;;;;86.10;40.33;;;;;;;14.52;58.50;101849.38;5065562;28;20198;-72
2021/11/16 06:10:50;;;;;;;83.87;38.00;;;;;;;14.78;57.31;101845.28;5066711;28;20182;-73
2021/11/16 06:13:15;;;;;;;80.90;37.40;;;;;;;15.47;55.25;101837.78;5060117;28;20180;-73
2021/11/16 06:15:41;;;;;;;74.90;35.03;;;;;;;15.30;55.31;101844.13;5036318;28;20774;-73
2021/11/16 06:18:06;;;;;;;81.37;36.07;;;;;;;15.23;55.61;101850.78;5053320;28;20195;-73
2021/11/16 06:20:32;;;;;;;82.13;36.83;;;;;;;14.82;57.06;101857.59;5040074;28;20176;-73
2021/11/16 06:22:57;;;;;;;80.73;35.73;;;;;;;15.43;55.11;101848.81;5056561;28;20182;-74
2021/11/16 06:25:23;;;;;;;74.50;35.90;;;;;;;15.43;55.19;101846.97;5058368;28;20194;-72
2021/11/16 06:27:48;;;;;;;68.23;35.17;;;;;;;14.89;56.29;101840.19;5056799;28;20199;-74
2021/11/16 06:30:14;;;;;;;83.03;37.87;;;;;;;14.51;57.64;101845.81;5058244;28;20171;-73
2021/11/16 06:32:39;;;;;;;78.93;36.70;;;;;;;15.32;55.64;101838.66;5057686;28;20174;-73
2021/11/16 06:35:05;;;;;;;71.23;33.33;;;;;;;15.50;54.94;101848.34;5057928;28;20250;-73
2021/11/16 06:37:30;;;;;;;69.30;30.53;;;;;;;15.06;55.35;101833.88;5056346;28;20213;-74
2021/11/16 06:39:56;;;;;;;70.70;33.10;;;;;;;15.39;54.85;101834.66;5057287;28;20178;-73
2021/11/16 06:42:21;;;;;;;63.63;30.73;;;;;;;15.13;55.41;101833.44;5058574;28;20203;-74
2021/11/16 06:44:48;;;;;;;65.97;31.80;;;;;;;15.23;55.45;101842.72;5057067;28;20179;-74
2021/11/16 06:47:14;;;;;;;60.13;29.83;;;;;;;15.36;55.21;101842.03;5059189;28;20223;-74
2021/11/16 06:49:48;;;;;;;70.30;32.13;;;;;;;15.43;55.50;101851.50;5059355;28;20186;-73
2021/11/16 06:52:13;;;;;;;76.73;31.73;;;;;;;15.30;55.18;101841.44;5025788;28;20229;-75
2021/11/16 06:54:39;;;;;;;66.43;31.67;;;;;;;13.43;58.82;101840.63;5060061;28;20604;-74
2021/11/16 06:57:04;;;;;;;55.70;28.70;;;;;;;15.15;55.96;101847.66;5060420;28;20282;-74
2021/11/16 06:59:30;;;;;;;61.50;30.93;;;;;;;15.53;54.36;101834.72;5058903;28;20655;-74
2021/11/16 07:01:55;;;;;;;74.93;33.63;;;;;;;12.59;61.23;101839.16;5059039;28;20284;-73
2021/11/16 07:04:21;;;;;;;71.80;31.17;;;;;;;14.99;55.75;101838.72;5058949;28;20187;-74
2021/11/16 07:06:50;;;;;;;61.60;31.03;;;;;;;14.38;57.51;101834.81;5040555;28;20251;-75
2021/11/16 07:09:17;;;;;;;64.77;31.17;;;;;;;14.85;56.51;101834.09;5042072;28;20187;-74
2021/11/16 07:11:51;;;;;;;68.43;31.43;;;;;;;13.54;59.75;101840.06;5025423;28;20174;-73
2021/11/16 07:14:30;;;;;;;68.40;31.10;;;;;;;14.26;58.19;101842.66;5058681;28;20169;-74
2021/11/16 07:16:55;;;;;;;64.73;31.63;;;;;;;15.22;55.13;101826.66;5041075;28;20249;-73
2021/11/16 07:19:38;;;;;;;73.70;33.50;;;;;;;15.52;55.41;101842.88;5058476;28;20209;-75
2021/11/16 07:22:23;;;;;;;72.17;32.03;;;;;;;15.63;54.42;101843.19;5057061;28;20201;-73
2021/11/16 07:24:53;;;;;;;69.57;33.37;;;;;;;15.74;55.12;101851.50;5058752;28;20155;-73
2021/11/16 07:27:22;;;;;;;77.43;34.73;;;;;;;15.76;55.16;101860.34;5041443;28;20187;-74
2021/11/16 07:29:52;;;;;;;68.07;33.23;;;;;;;15.09;56.64;101852.53;5059007;28;20648;-73
2021/11/16 07:32:30;;;;;;;68.00;33.20;;;;;;;15.21;55.65;101843.75;5059545;28;20182;-74
2021/11/16 07:35:04;;;;;;;66.93;33.37;;;;;;;13.75;58.99;101847.94;5058177;28;20182;-73
2021/11/16 07:37:34;;;;;;;74.93;34.23;;;;;;;15.28;56.70;101854.09;5058560;28;20210;-74
2021/11/16 07:40:04;;;;;;;73.30;34.73;;;;;;;15.18;56.32;101852.88;5058511;28;20168;-73
2021/11/16 07:42:32;;;;;;;83.47;35.27;;;;;;;15.38;56.02;101865.22;5058915;28;20670;-74
2021/11/16 07:45:13;;;;;;;78.97;35.53;;;;;;;14.82;57.19;101861.13;5058819;28;20645;-74
2021/11/16 07:47:43;;;;;;;74.00;34.50;;;;;;;15.15;56.47;101874.56;5041909;28;20302;-73
2021/11/16 07:50:11;;;;;;;64.63;32.40;;;;;;;14.75;57.16;101880.38;5061910;28;20199;-73
2021/11/16 07:52:38;;;;;;;66.40;33.57;;;;;;;15.07;56.18;101871.44;5056969;28;20227;-73
2021/11/16 07:55:04;;;;;;;74.33;34.27;;;;;;;13.67;58.24;101866.22;5058195;28;20518;-73
2021/11/16 07:57:30;;;;;;;70.87;33.80;;;;;;;14.42;57.13;101854.31;5058355;28;20202;-73
2021/11/16 07:59:56;;;;;;;73.00;33.07;;;;;;;14.36;58.07;101857.34;5068365;28;20175;-73
2021/11/16 08:02:33;;;;;;;72.97;35.57;;;;;;;15.17;56.40;101858.34;5069844;28;20277;-72
2021/11/16 08:05:32;;;;;;;83.90;34.60;;;;;;;15.66;55.46;101858.28;5069253;28;20160;-74
2021/11/16 08:08:17;;;;;;;68.80;33.80;;;;;;;15.78;55.01;101853.06;5059222;28;20253;-73
2021/11/16 08:10:46;;;;;;;85.50;34.87;;;;;;;15.96;54.12;101853.78;5059163;28;20241;-73
2021/11/16 08:13:16;;;;;;;81.37;34.87;;;;;;;14.75;56.12;101856.19;5058936;28;20198;-74
2021/11/16 08:15:44;;;;;;;77.67;34.40;;;;;;;14.35;58.37;101855.59;5058457;28;20168;-72
2021/11/16 08:18:14;;;;;;;79.03;34.80;;;;;;;13.81;58.66;101854.81;5058482;28;20207;-73
2021/11/16 08:20:41;;;;;;;80.37;33.93;;;;;;;14.59;57.28;101857.03;5058106;28;20156;-74
2021/11/16 08:23:08;;;;;;;74.83;35.00;;;;;;;14.36;57.69;101850.13;5023301;28;20614;-73
2021/11/16 08:25:33;;;;;;;77.50;34.93;;;;;;;15.09;56.30;101848.00;5057443;28;20224;-73
2021/11/16 08:28:00;;;;;;;75.53;34.87;;;;;;;15.15;55.75;101842.28;5057320;28;20282;-73
2021/11/16 08:30:27;;;;;;;77.83;33.60;;;;;;;13.37;59.81;101841.75;5056257;28;20182;-73
2021/11/16 08:32:57;;;;;;;75.43;33.87;;;;;;;13.74;59.97;101847.97;5056875;28;20270;-73
2021/11/16 08:35:24;;;;;;;75.23;33.37;;;;;;;13.78;58.92;101838.88;5056075;28;20213;-73
2021/11/16 08:37:55;;;;;;;68.93;33.70;;;;;;;14.02;59.12;101844.78;5036736;28;20297;-72
2021/11/16 08:40:25;;;;;;;65.87;32.00;;;;;;;12.64;60.86;101839.84;5054366;28;20168;-73
2021/11/16 08:43:13;;;;;;;67.13;30.20;;;;;;;13.19;59.90;101839.09;5056307;28;20676;-74
2021/11/16 08:45:44;;;;;;;62.37;29.97;;;;;;;13.52;59.85;101844.66;5039755;28;20213;-74
2021/11/16 08:48:12;;;;;;;73.77;31.70;;;;;;;14.60;58.09;101850.69;5056217;28;20203;-74
2021/11/16 08:50:43;;;;;;;61.93;28.70;;;;;;;14.26;58.15;101842.66;5056052;28;20203;-73
2021/11/16 08:53:17;;;;;;;63.37;31.17;;;;;;;13.90;59.27;101862.38;5056208;28;20182;-74
2021/11/16 08:55:42;;;;;;;69.43;31.67;;;;;;;13.92;58.81;101857.81;5054895;28;20189;-73
2021/11/16 08:58:11;;;;;;;62.60;30.17;;;;;;;14.46;57.98;101853.22;5056700;28;20330;-74
2021/11/16 09:00:40;;;;;;;61.83;29.63;;;;;;;15.65;55.09;101857.41;5056679;28;20167;-74
2021/11/16 09:03:11;;;;;;;62.87;30.37;;;;;;;15.97;54.48;101857.34;5056116;28;20176;-73
2021/11/16 09:05:41;;;;;;;67.23;30.00;;;;;;;12.27;62.42;101856.69;5055614;28;20168;-73
2021/11/16 09:08:23;;;;;;;76.90;31.90;;;;;;;14.33;58.72;101861.03;5056054;28;20225;-73
2021/11/16 09:10:53;;;;;;;76.47;33.40;;;;;;;14.44;57.70;101841.69;5056233;28;20159;-74
2021/11/16 09:13:20;;;;;;;73.30;32.50;;;;;;;14.35;58.36;101852.91;5054849;28;20171;-73
2021/11/16 09:16:05;;;;;;;71.33;32.33;;;;;;;13.89;58.40;101844.56;5039083;28;20583;-74
2021/11/16 09:18:38;;;;;;;68.87;30.10;;;;;;;12.26;62.80;101851.38;5054558;28;20640;-73
2021/11/16 09:21:06;;;;;;;67.40;27.77;;;;;;;12.61;62.83;101834.59;5054466;28;20203;-73
2021/11/16 09:23:33;;;;;;;70.93;30.57;;;;;;;12.64;61.90;101826.47;5054582;28;20183;-73
2021/11/16 09:26:26;;;;;;;78.03;33.07;;;;;;;13.31;61.85;101846.53;5053134;28;20180;-73
2021/11/16 09:28:54;;;;;;;76.40;33.57;;;;;;;13.95;59.37;101840.69;5053709;28;20710;-73
2021/11/16 09:31:25;;;;;;;81.37;30.50;;;;;;;12.56;63.38;101844.66;5054039;28;20546;-73
2021/11/16 09:33:52;;;;;;;72.37;31.97;;;;;;;13.25;60.71;101837.00;5055039;28;20544;-73
2021/11/16 09:36:26;;;;;;;69.97;32.27;;;;;;;14.53;58.99;101857.34;5035989;28;20506;-73
2021/11/16 09:38:57;;;;;;;82.57;31.53;;;;;;;14.35;57.92;101836.78;5054653;28;20167;-73
2021/11/16 09:41:37;;;;;;;65.43;30.23;;;;;;;14.79;57.67;101838.94;5054978;28;20187;-73
2021/11/16 09:44:09;;;;;;;76.50;33.73;;;;;;;14.51;58.88;101840.44;5055297;28;20618;-73
2021/11/16 09:47:03;;;;;;;76.67;33.87;;;;;;;14.58;58.30;101835.63;5054627;28;20171;-74
2021/11/16 09:49:29;;;;;;;75.43;32.37;;;;;;;12.95;61.26;101828.56;5037008;28;20198;-73
2021/11/16 09:51:56;;;;;;;76.60;32.17;;;;;;;12.87;62.05;101840.59;5054852;28;20576;-75
2021/11/16 09:54:22;;;;;;;76.57;33.47;;;;;;;13.22;61.66;101845.19;5058275;28;20175;-74
2021/11/16 09:56:47;;;;;;;76.87;32.90;;;;;;;15.01;56.77;101828.75;5059017;28;20294;-75
2021/11/16 09:59:24;;;;;;;69.40;30.40;;;;;;;15.76;55.42;101836.13;5058473;28;20258;-73
2021/11/16 10:01:49;;;;;;;78.27;33.10;;;;;;;15.17;56.45;101836.81;5056958;28;20199;-73
2021/11/16 10:04:26;;;;;;;72.20;31.57;;;;;;;15.43;55.96;101835.34;5057769;28;20629;-74
2021/11/16 10:06:55;;;;;;;80.70;33.93;;;;;;;13.89;59.50;101839.19;5058956;28;20234;-73
2021/11/16 10:09:20;;;;;;;69.17;31.07;;;;;;;14.43;58.00;101826.53;5058370;28;20183;-74
2021/11/16 10:11:49;;;;;;;74.27;32.13;;;;;;;14.47;57.25;101814.69;5056446;28;20224;-73
2021/11/16 10:14:17;;;;;;;62.67;29.40;;;;;;;12.83;60.74;101831.81;5057803;28;20710;-74
2021/11/16 10:16:44;;;;;;;66.03;29.57;;;;;;;14.54;57.92;101826.84;5040498;28;20207;-72
2021/11/16 10:19:10;;;;;;;60.77;29.27;;;;;;;14.50;58.30;101835.16;5022961;28;20528;-73
2021/11/16 10:21:36;;;;;;;62.37;29.67;;;;;;;14.38;58.40;101828.56;5057491;28;20707;-73
2021/11/16 10:24:01;;;;;;;69.13;30.63;;;;;;;14.71;57.62;101820.56;5058322;28;20175;-74
2021/11/16 10:26:34;;;;;;;73.30;31.80;;;;;;;13.65;59.01;101809.09;5056911;28;20648;-74
2021/11/16 10:29:00;;;;;;;62.03;30.30;;;;;;;14.18;59.52;101820.72;5056857;28;20583;-73
2021/11/16 10:31:33;;;;;;;64.47;29.27;;;;;;;15.45;56.62;101825.38;5057292;28;20172;-74
2021/11/16 10:33:59;;;;;;;70.40;31.63;;;;;;;13.65;60.01;101819.81;5023256;28;20175;-74
2021/11/16 10:36:25;;;;;;;70.27;31.23;;;;;;;14.35;57.99;101807.25;5039024;28;20259;-74
2021/11/16 10:38:55;;;;;;;70.23;31.53;;;;;;;12.99;60.87;101822.09;5058993;28;20194;-74
2021/11/16 10:41:23;;;;;;;68.60;32.23;;;;;;;14.11;59.53;101811.22;5061893;28;20191;-74
2021/11/16 10:43:50;;;;;;;71.33;32.10;;;;;;;14.50;59.33;101806.47;5059569;28;20183;-74
2021/11/16 10:46:20;;;;;;;72.70;32.43;;;;;;;14.23;59.59;101795.34;5057318;28;20229;-74
2021/11/16 10:48:48;;;;;;;79.63;33.03;;;;;;;13.31;61.10;101806.34;5057657;28;20659;-74
2021/11/16 10:51:14;;;;;;;71.23;32.17;;;;;;;14.69;58.11;101791.09;5039868;28;20552;-73
2021/11/16 10:53:49;;;;;;;74.33;30.97;;;;;;;14.32;59.36;101791.31;5057419;28;20172;-74
2021/11/16 10:56:22;;;;;;;90.13;34.23;;;;;;;14.60;58.77;101783.53;5058331;28;20163;-74
2021/11/16 10:58:48;;;;;;;76.20;31.40;;;;;;;15.05;57.63;101783.75;5058039;28;20179;-73
2021/11/16 11:01:17;;;;;;;69.83;31.63;;;;;;;15.06;57.38;101772.91;5040462;28;20246;-73
2021/11/16 11:03:51;;;;;;;77.30;32.20;;;;;;;13.33;60.04;101751.69;5057958;28;20179;-73
2021/11/16 11:06:24;;;;;;;65.27;29.77;;;;;;;15.13;56.99;101766.22;5056398;28;20632;-73
2021/11/16 11:08:57;;;;;;;67.83;31.17;;;;;;;15.29;56.09;101750.94;5056022;28;20188;-74
2021/11/16 11:11:39;;;;;;;64.73;30.07;;;;;;;15.20;56.29;101738.00;5059637;28;20176;-74
2021/11/16 11:14:21;;;;;;;60.73;28.00;;;;;;;13.57;59.37;101736.19;5056985;28;20183;-74
2021/11/16 11:16:56;;;;;;;60.53;28.47;;;;;;;15.09;57.56;101739.59;5057407;28;20262;-74
2021/11/16 11:19:28;;;;;;;59.40;29.17;;;;;;;15.68;55.09;101727.19;5039725;28;20178;-74
2021/11/16 11:21:58;;;;;;;65.80;28.93;;;;;;;14.95;56.45;101721.59;5056773;28;20202;-73
2021/11/16 11:24:38;;;;;;;67.03;28.27;;;;;;;15.27;56.65;101728.66;5038552;28;20177;-75